Terminal Aerodrome Forecast
Issued by NWS Tallahassee, FL

Home | Current Version | Previous Version | Text Only | Print | Product List | Glossary On
Versions: 1 2 3 4 5 6 7 8 9 10 11 12 13 14 15
884
FTUS42 KTAE 150521
TAFTLH
TAF
KTLH 150521Z 1506/1606 VRB03KT P6SM BKN120
     FM151000 00000KT 5SM BR SCT025
     FM151400 32005KT P6SM BKN100=

USA.gov is the U.S. government's official web portal to all federal, state and local government web resources and services.